AAL269 KCLT-KCMH
Flight info
| Callsign | AAL269 |
|---|---|
| Flight time | 0h 59m |
| Altitude | 32000 |
| Route | WEAZL5 CLAWD MCGNS SCRLT2 |
| Aircraft | B38M/M-SDE1FGHILORVWXY/HB1 |
Departure
| Time | 2026-05-08 22:48 |
|---|---|
| Airport | Charlotte Douglas International Airport (KCLT) |
Arrival
| Time | 2026-05-08 23:47 |
|---|---|
| Airport | John Glenn Columbus International Airport (KCMH) |
| Time | Latitude | Longitude | Altitude | Speed | Heading |
|---|---|---|---|---|---|
| 2026-05-08 22:24 | 35.21988 | -80.94752 | 731 ft | 0 kts | 358° |
| 2026-05-08 22:33 | 35.21977 | -80.94751 | 731 ft | 4 kts | 359° |
| 2026-05-08 22:33 | 35.21950 | -80.94752 | 730 ft | 4 kts | 0° |
| 2026-05-08 22:33 | 35.21924 | -80.94749 | 731 ft | 4 kts | 336° |
| 2026-05-08 22:34 | 35.21906 | -80.94730 | 731 ft | 4 kts | 288° |
| 2026-05-08 22:34 | 35.21903 | -80.94699 | 729 ft | 3 kts | 266° |
| 2026-05-08 22:34 | 35.21905 | -80.94673 | 731 ft | 3 kts | 266° |
| 2026-05-08 22:34 | 35.21905 | -80.94667 | 731 ft | 0 kts | 266° |
| 2026-05-08 22:41 | 35.21905 | -80.94668 | 731 ft | 1 kts | 266° |
| 2026-05-08 22:42 | 35.21890 | -80.94738 | 730 ft | 11 kts | 253° |
| 2026-05-08 22:42 | 35.21876 | -80.94830 | 731 ft | 12 kts | 264° |
| 2026-05-08 22:42 | 35.21873 | -80.94886 | 732 ft | 0 kts | 266° |
| 2026-05-08 22:43 | 35.21872 | -80.94905 | 732 ft | 10 kts | 265° |
| 2026-05-08 22:43 | 35.21870 | -80.95007 | 732 ft | 14 kts | 289° |
| 2026-05-08 22:44 | 35.21972 | -80.95052 | 733 ft | 17 kts | 355° |
| 2026-05-08 22:44 | 35.22090 | -80.95063 | 733 ft | 17 kts | 354° |
| 2026-05-08 22:44 | 35.22203 | -80.95073 | 733 ft | 16 kts | 356° |
| 2026-05-08 22:44 | 35.22311 | -80.95081 | 733 ft | 15 kts | 356° |
| 2026-05-08 22:45 | 35.22425 | -80.95091 | 732 ft | 17 kts | 356° |
| 2026-05-08 22:45 | 35.22539 | -80.95101 | 732 ft | 16 kts | 355° |
| 2026-05-08 22:45 | 35.22658 | -80.95111 | 732 ft | 17 kts | 356° |
| 2026-05-08 22:45 | 35.22732 | -80.95186 | 734 ft | 13 kts | 268° |
| 2026-05-08 22:46 | 35.22731 | -80.95197 | 734 ft | 0 kts | 265° |
| 2026-05-08 22:46 | 35.22728 | -80.95239 | 736 ft | 9 kts | 266° |
| 2026-05-08 22:46 | 35.22704 | -80.95305 | 738 ft | 9 kts | 209° |
| 2026-05-08 22:46 | 35.22667 | -80.95311 | 740 ft | 0 kts | 175° |
| 2026-05-08 22:47 | 35.22658 | -80.95310 | 740 ft | 8 kts | 176° |
| 2026-05-08 22:47 | 35.22641 | -80.95309 | 740 ft | 10 kts | 176° |
| 2026-05-08 22:47 | 35.22264 | -80.95277 | 740 ft | 98 kts | 176° |
| 2026-05-08 22:47 | 35.21327 | -80.95189 | 775 ft | 168 kts | 176° |
| 2026-05-08 22:48 | 35.19996 | -80.95064 | 1162 ft | 207 kts | 176° |
| 2026-05-08 22:48 | 35.18498 | -80.94896 | 1786 ft | 227 kts | 175° |
| 2026-05-08 22:48 | 35.16880 | -80.94717 | 2278 ft | 240 kts | 175° |
| 2026-05-08 22:48 | 35.15200 | -80.94557 | 2757 ft | 242 kts | 176° |
| 2026-05-08 22:49 | 35.13513 | -80.94423 | 3224 ft | 242 kts | 177° |
| 2026-05-08 22:49 | 35.10184 | -80.94525 | 4185 ft | 243 kts | 206° |
| 2026-05-08 22:49 | 35.09294 | -80.95350 | 4554 ft | 245 kts | 231° |
| 2026-05-08 22:50 | 35.08633 | -80.97269 | 5079 ft | 251 kts | 261° |
| 2026-05-08 22:50 | 35.08732 | -80.99402 | 5583 ft | 257 kts | 285° |
| 2026-05-08 22:50 | 35.09588 | -81.01317 | 6099 ft | 261 kts | 311° |
| 2026-05-08 22:50 | 35.11110 | -81.02530 | 6596 ft | 265 kts | 340° |
| 2026-05-08 22:51 | 35.12918 | -81.02972 | 7119 ft | 267 kts | 351° |
| 2026-05-08 22:51 | 35.14789 | -81.03184 | 7623 ft | 275 kts | 353° |
| 2026-05-08 22:51 | 35.16695 | -81.03351 | 8116 ft | 279 kts | 353° |
| 2026-05-08 22:51 | 35.18631 | -81.03516 | 8622 ft | 278 kts | 352° |
| 2026-05-08 22:52 | 35.20564 | -81.03690 | 9131 ft | 278 kts | 351° |
| 2026-05-08 22:52 | 35.22493 | -81.03873 | 9641 ft | 278 kts | 350° |
| 2026-05-08 22:52 | 35.24425 | -81.04064 | 10128 ft | 280 kts | 350° |
| 2026-05-08 22:52 | 35.26454 | -81.04277 | 10321 ft | 306 kts | 350° |
| 2026-05-08 22:53 | 35.28660 | -81.04514 | 10518 ft | 331 kts | 350° |
| 2026-05-08 22:53 | 35.31047 | -81.04772 | 10692 ft | 354 kts | 351° |
| 2026-05-08 22:53 | 35.33564 | -81.05041 | 11031 ft | 369 kts | 351° |
| 2026-05-08 22:53 | 35.36147 | -81.05313 | 11650 ft | 374 kts | 351° |
| 2026-05-08 22:54 | 35.38754 | -81.05586 | 12355 ft | 378 kts | 350° |
| 2026-05-08 22:54 | 35.41388 | -81.05864 | 13056 ft | 381 kts | 350° |
| 2026-05-08 22:54 | 35.44043 | -81.06146 | 13756 ft | 385 kts | 350° |
| 2026-05-08 22:54 | 35.46736 | -81.06434 | 14330 ft | 389 kts | 349° |
| 2026-05-08 22:55 | 35.49437 | -81.06723 | 14974 ft | 391 kts | 349° |
| 2026-05-08 22:55 | 35.52158 | -81.07015 | 15642 ft | 393 kts | 349° |
| 2026-05-08 22:55 | 35.54854 | -81.07305 | 16253 ft | 396 kts | 348° |
| 2026-05-08 22:55 | 35.57642 | -81.07604 | 16843 ft | 399 kts | 348° |
| 2026-05-08 22:56 | 35.60428 | -81.07903 | 17429 ft | 402 kts | 348° |
| 2026-05-08 22:56 | 35.63185 | -81.08200 | 17997 ft | 405 kts | 348° |
| 2026-05-08 22:56 | 35.66005 | -81.08505 | 18560 ft | 407 kts | 347° |
| 2026-05-08 22:56 | 35.68844 | -81.08800 | 19061 ft | 411 kts | 348° |
| 2026-05-08 22:57 | 35.71710 | -81.09051 | 19546 ft | 414 kts | 348° |
| 2026-05-08 22:57 | 35.74603 | -81.09282 | 20040 ft | 417 kts | 348° |
| 2026-05-08 22:57 | 35.77458 | -81.09502 | 20495 ft | 421 kts | 348° |
| 2026-05-08 22:57 | 35.80450 | -81.09734 | 21005 ft | 423 kts | 348° |
| 2026-05-08 22:58 | 35.83401 | -81.09965 | 21469 ft | 425 kts | 347° |
| 2026-05-08 22:58 | 35.86332 | -81.10198 | 21871 ft | 428 kts | 347° |
| 2026-05-08 22:58 | 35.89314 | -81.10437 | 22300 ft | 431 kts | 347° |
| 2026-05-08 22:58 | 35.92336 | -81.10681 | 22774 ft | 433 kts | 347° |
| 2026-05-08 22:59 | 35.95361 | -81.10927 | 23130 ft | 438 kts | 347° |
| 2026-05-08 22:59 | 35.98388 | -81.11173 | 23505 ft | 441 kts | 347° |
| 2026-05-08 22:59 | 36.01460 | -81.11422 | 23889 ft | 443 kts | 347° |
| 2026-05-08 22:59 | 36.04543 | -81.11670 | 24304 ft | 443 kts | 347° |
| 2026-05-08 23:00 | 36.07628 | -81.11922 | 24692 ft | 444 kts | 346° |
| 2026-05-08 23:00 | 36.10723 | -81.12176 | 24991 ft | 448 kts | 346° |
| 2026-05-08 23:00 | 36.13851 | -81.12428 | 25314 ft | 450 kts | 346° |
| 2026-05-08 23:00 | 36.16972 | -81.12679 | 25712 ft | 449 kts | 345° |
| 2026-05-08 23:01 | 36.20104 | -81.12932 | 26092 ft | 451 kts | 345° |
| 2026-05-08 23:01 | 36.23198 | -81.13184 | 26367 ft | 453 kts | 345° |
| 2026-05-08 23:01 | 36.26356 | -81.13441 | 26677 ft | 454 kts | 345° |
| 2026-05-08 23:01 | 36.29515 | -81.13696 | 27009 ft | 455 kts | 345° |
| 2026-05-08 23:02 | 36.32681 | -81.13951 | 27357 ft | 454 kts | 344° |
| 2026-05-08 23:02 | 36.35835 | -81.14208 | 27643 ft | 455 kts | 343° |
| 2026-05-08 23:02 | 36.38995 | -81.14468 | 28025 ft | 454 kts | 342° |
| 2026-05-08 23:02 | 36.42070 | -81.14997 | 28648 ft | 435 kts | 335° |
| 2026-05-08 23:03 | 36.44905 | -81.15993 | 29279 ft | 413 kts | 326° |
| 2026-05-08 23:03 | 36.47573 | -81.17279 | 29762 ft | 410 kts | 324° |
| 2026-05-08 23:03 | 36.50216 | -81.18573 | 30175 ft | 408 kts | 324° |
| 2026-05-08 23:03 | 36.52863 | -81.19864 | 30541 ft | 407 kts | 324° |
| 2026-05-08 23:04 | 36.55469 | -81.21126 | 30862 ft | 407 kts | 324° |
| 2026-05-08 23:04 | 36.58107 | -81.22404 | 31117 ft | 407 kts | 323° |
| 2026-05-08 23:04 | 36.60786 | -81.23704 | 31387 ft | 408 kts | 323° |
| 2026-05-08 23:04 | 36.63436 | -81.24978 | 31722 ft | 408 kts | 323° |
| 2026-05-08 23:05 | 36.66053 | -81.26224 | 31991 ft | 409 kts | 323° |
| 2026-05-08 23:05 | 36.68714 | -81.27498 | 32031 ft | 410 kts | 323° |
| 2026-05-08 23:05 | 36.74061 | -81.30030 | 32068 ft | 412 kts | 323° |
| 2026-05-08 23:06 | 36.79401 | -81.32571 | 32034 ft | 409 kts | 323° |
| 2026-05-08 23:06 | 36.84660 | -81.35138 | 32041 ft | 407 kts | 323° |
| 2026-05-08 23:07 | 36.89956 | -81.37693 | 32049 ft | 406 kts | 323° |
| 2026-05-08 23:07 | 36.95239 | -81.40241 | 32070 ft | 407 kts | 323° |
| 2026-05-08 23:08 | 37.00529 | -81.42791 | 32047 ft | 408 kts | 323° |
| 2026-05-08 23:08 | 37.05801 | -81.45344 | 32023 ft | 408 kts | 323° |
| 2026-05-08 23:09 | 37.11132 | -81.47921 | 31998 ft | 408 kts | 323° |
| 2026-05-08 23:09 | 37.16420 | -81.50495 | 31984 ft | 406 kts | 322° |
| 2026-05-08 23:10 | 37.21669 | -81.53049 | 31972 ft | 408 kts | 323° |
| 2026-05-08 23:10 | 37.26976 | -81.55610 | 31994 ft | 409 kts | 324° |
| 2026-05-08 23:11 | 37.32303 | -81.58177 | 31976 ft | 409 kts | 323° |
| 2026-05-08 23:11 | 37.37634 | -81.60752 | 31968 ft | 410 kts | 323° |
| 2026-05-08 23:12 | 37.42917 | -81.63376 | 32000 ft | 410 kts | 323° |
| 2026-05-08 23:12 | 37.48273 | -81.65986 | 31950 ft | 413 kts | 324° |
| 2026-05-08 23:13 | 37.53615 | -81.68607 | 31959 ft | 416 kts | 324° |
| 2026-05-08 23:13 | 37.59018 | -81.71284 | 31955 ft | 417 kts | 324° |
| 2026-05-08 23:14 | 37.64443 | -81.73916 | 31929 ft | 416 kts | 324° |
| 2026-05-08 23:14 | 37.69821 | -81.76638 | 31964 ft | 419 kts | 325° |
| 2026-05-08 23:15 | 37.75240 | -81.79372 | 31971 ft | 417 kts | 324° |
| 2026-05-08 23:15 | 37.80648 | -81.82013 | 31928 ft | 421 kts | 326° |
| 2026-05-08 23:16 | 37.86120 | -81.84654 | 31952 ft | 420 kts | 325° |
| 2026-05-08 23:16 | 37.91571 | -81.87352 | 31962 ft | 420 kts | 325° |
| 2026-05-08 23:17 | 37.96986 | -81.90045 | 31946 ft | 420 kts | 325° |
| 2026-05-08 23:17 | 38.02423 | -81.92731 | 31923 ft | 413 kts | 325° |
| 2026-05-08 23:18 | 38.05083 | -81.94046 | 31509 ft | 406 kts | 326° |
| 2026-05-08 23:18 | 38.07697 | -81.95340 | 31063 ft | 401 kts | 326° |
| 2026-05-08 23:18 | 38.10279 | -81.96618 | 30643 ft | 396 kts | 326° |
| 2026-05-08 23:18 | 38.12833 | -81.97893 | 30210 ft | 392 kts | 327° |
| 2026-05-08 23:19 | 38.15338 | -81.99149 | 29741 ft | 389 kts | 327° |
| 2026-05-08 23:19 | 38.17864 | -82.00415 | 29235 ft | 385 kts | 327° |
| 2026-05-08 23:19 | 38.20341 | -82.01655 | 28746 ft | 381 kts | 327° |
| 2026-05-08 23:19 | 38.22798 | -82.02890 | 28253 ft | 378 kts | 328° |
| 2026-05-08 23:20 | 38.25241 | -82.04114 | 27783 ft | 374 kts | 328° |
| 2026-05-08 23:20 | 38.27657 | -82.05324 | 27315 ft | 371 kts | 328° |
| 2026-05-08 23:20 | 38.30057 | -82.06514 | 26863 ft | 369 kts | 328° |
| 2026-05-08 23:20 | 38.32438 | -82.07700 | 26374 ft | 365 kts | 328° |
| 2026-05-08 23:21 | 38.34761 | -82.08884 | 25956 ft | 362 kts | 328° |
| 2026-05-08 23:21 | 38.37094 | -82.10064 | 25534 ft | 360 kts | 329° |
| 2026-05-08 23:21 | 38.39421 | -82.11233 | 25121 ft | 358 kts | 329° |
| 2026-05-08 23:21 | 38.41732 | -82.12392 | 24681 ft | 356 kts | 330° |
| 2026-05-08 23:22 | 38.44033 | -82.13549 | 24262 ft | 354 kts | 330° |
| 2026-05-08 23:22 | 38.46329 | -82.14706 | 23851 ft | 352 kts | 330° |
| 2026-05-08 23:22 | 38.48608 | -82.15831 | 23417 ft | 352 kts | 334° |
| 2026-05-08 23:22 | 38.51003 | -82.16513 | 23024 ft | 357 kts | 343° |
| 2026-05-08 23:23 | 38.53421 | -82.16941 | 22947 ft | 345 kts | 343° |
| 2026-05-08 23:23 | 38.55768 | -82.17322 | 22918 ft | 333 kts | 343° |
| 2026-05-08 23:23 | 38.58051 | -82.17704 | 22926 ft | 331 kts | 343° |
| 2026-05-08 23:23 | 38.60343 | -82.18109 | 22934 ft | 334 kts | 342° |
| 2026-05-08 23:24 | 38.62653 | -82.18531 | 22937 ft | 336 kts | 343° |
| 2026-05-08 23:24 | 38.64983 | -82.18960 | 22811 ft | 339 kts | 342° |
| 2026-05-08 23:24 | 38.67315 | -82.19396 | 22277 ft | 343 kts | 343° |
| 2026-05-08 23:24 | 38.69675 | -82.19836 | 21828 ft | 344 kts | 343° |
| 2026-05-08 23:25 | 38.72051 | -82.20278 | 21371 ft | 343 kts | 343° |
| 2026-05-08 23:25 | 38.74413 | -82.20718 | 20905 ft | 343 kts | 343° |
| 2026-05-08 23:25 | 38.76777 | -82.21159 | 20449 ft | 342 kts | 343° |
| 2026-05-08 23:25 | 38.79135 | -82.21601 | 20015 ft | 342 kts | 343° |
| 2026-05-08 23:26 | 38.81490 | -82.22043 | 19568 ft | 341 kts | 344° |
| 2026-05-08 23:26 | 38.83829 | -82.22482 | 19141 ft | 340 kts | 344° |
| 2026-05-08 23:26 | 38.86144 | -82.22918 | 18723 ft | 340 kts | 344° |
| 2026-05-08 23:26 | 38.88487 | -82.23359 | 18335 ft | 339 kts | 344° |
| 2026-05-08 23:27 | 38.90821 | -82.23799 | 17856 ft | 339 kts | 344° |
| 2026-05-08 23:27 | 38.93155 | -82.24237 | 17379 ft | 338 kts | 344° |
| 2026-05-08 23:27 | 38.95485 | -82.24676 | 16907 ft | 337 kts | 344° |
| 2026-05-08 23:27 | 38.97792 | -82.25111 | 16441 ft | 336 kts | 344° |
| 2026-05-08 23:28 | 39.00044 | -82.25536 | 16002 ft | 335 kts | 344° |
| 2026-05-08 23:28 | 39.02317 | -82.25964 | 15548 ft | 334 kts | 344° |
| 2026-05-08 23:28 | 39.04616 | -82.26399 | 15105 ft | 333 kts | 344° |
| 2026-05-08 23:28 | 39.06903 | -82.26832 | 14675 ft | 331 kts | 344° |
| 2026-05-08 23:29 | 39.09180 | -82.27263 | 14233 ft | 330 kts | 344° |
| 2026-05-08 23:29 | 39.11456 | -82.27694 | 13819 ft | 329 kts | 344° |
| 2026-05-08 23:29 | 39.13719 | -82.28125 | 13367 ft | 328 kts | 344° |
| 2026-05-08 23:29 | 39.15973 | -82.28554 | 12894 ft | 327 kts | 345° |
| 2026-05-08 23:30 | 39.18224 | -82.28982 | 12419 ft | 327 kts | 345° |
| 2026-05-08 23:30 | 39.20471 | -82.29409 | 11965 ft | 326 kts | 346° |
| 2026-05-08 23:30 | 39.22720 | -82.29836 | 11509 ft | 325 kts | 346° |
| 2026-05-08 23:30 | 39.24931 | -82.30256 | 11058 ft | 325 kts | 346° |
| 2026-05-08 23:31 | 39.27163 | -82.30680 | 10616 ft | 324 kts | 347° |
| 2026-05-08 23:31 | 39.29389 | -82.31104 | 10181 ft | 323 kts | 347° |
| 2026-05-08 23:31 | 39.31590 | -82.31521 | 10031 ft | 313 kts | 347° |
| 2026-05-08 23:31 | 39.33703 | -82.31919 | 9994 ft | 301 kts | 347° |
| 2026-05-08 23:32 | 39.35730 | -82.32302 | 9981 ft | 288 kts | 347° |
| 2026-05-08 23:32 | 39.37673 | -82.32670 | 9985 ft | 275 kts | 346° |
| 2026-05-08 23:32 | 39.39520 | -82.33020 | 10008 ft | 260 kts | 346° |
| 2026-05-08 23:32 | 39.41309 | -82.33364 | 10016 ft | 261 kts | 346° |
| 2026-05-08 23:33 | 39.43098 | -82.33709 | 10003 ft | 259 kts | 346° |
| 2026-05-08 23:33 | 39.44874 | -82.34049 | 9999 ft | 256 kts | 346° |
| 2026-05-08 23:33 | 39.46629 | -82.34385 | 9994 ft | 254 kts | 346° |
| 2026-05-08 23:33 | 39.48377 | -82.34720 | 10003 ft | 253 kts | 346° |
| 2026-05-08 23:34 | 39.49530 | -82.34945 | 9998 ft | 252 kts | 344° |
| 2026-05-08 23:34 | 39.51103 | -82.35776 | 10016 ft | 242 kts | 319° |
| 2026-05-08 23:34 | 39.52474 | -82.37082 | 10009 ft | 247 kts | 318° |
| 2026-05-08 23:34 | 39.53863 | -82.38412 | 10001 ft | 247 kts | 319° |
| 2026-05-08 23:35 | 39.55244 | -82.39731 | 9958 ft | 247 kts | 319° |
| 2026-05-08 23:35 | 39.56645 | -82.41064 | 9646 ft | 250 kts | 318° |
| 2026-05-08 23:35 | 39.58035 | -82.42383 | 9257 ft | 244 kts | 318° |
| 2026-05-08 23:35 | 39.59390 | -82.43663 | 8849 ft | 239 kts | 317° |
| 2026-05-08 23:36 | 39.60719 | -82.44923 | 8462 ft | 235 kts | 317° |
| 2026-05-08 23:36 | 39.62030 | -82.46166 | 8093 ft | 231 kts | 317° |
| 2026-05-08 23:36 | 39.63294 | -82.47361 | 8009 ft | 220 kts | 317° |
| 2026-05-08 23:36 | 39.64522 | -82.48526 | 7997 ft | 219 kts | 317° |
| 2026-05-08 23:37 | 39.65756 | -82.49698 | 8007 ft | 221 kts | 317° |
| 2026-05-08 23:37 | 39.67000 | -82.50881 | 8010 ft | 222 kts | 317° |
| 2026-05-08 23:37 | 39.68246 | -82.52063 | 7998 ft | 221 kts | 317° |
| 2026-05-08 23:37 | 39.69471 | -82.53225 | 8006 ft | 221 kts | 317° |
| 2026-05-08 23:38 | 39.70706 | -82.54397 | 7995 ft | 216 kts | 317° |
| 2026-05-08 23:38 | 39.71893 | -82.55504 | 7989 ft | 205 kts | 318° |
| 2026-05-08 23:38 | 39.73072 | -82.56542 | 7655 ft | 206 kts | 319° |
| 2026-05-08 23:38 | 39.74259 | -82.57578 | 7273 ft | 204 kts | 319° |
| 2026-05-08 23:39 | 39.75433 | -82.58604 | 6914 ft | 202 kts | 319° |
| 2026-05-08 23:39 | 39.76595 | -82.59622 | 6554 ft | 201 kts | 319° |
| 2026-05-08 23:39 | 39.77754 | -82.60639 | 6178 ft | 201 kts | 318° |
| 2026-05-08 23:39 | 39.78911 | -82.61656 | 5790 ft | 200 kts | 319° |
| 2026-05-08 23:40 | 39.80048 | -82.62656 | 5418 ft | 199 kts | 318° |
| 2026-05-08 23:40 | 39.81215 | -82.63621 | 5040 ft | 201 kts | 328° |
| 2026-05-08 23:40 | 39.82602 | -82.64077 | 4677 ft | 207 kts | 343° |
| 2026-05-08 23:40 | 39.84042 | -82.64274 | 4278 ft | 208 kts | 347° |
| 2026-05-08 23:41 | 39.85450 | -82.64607 | 3905 ft | 204 kts | 342° |
| 2026-05-08 23:41 | 39.86829 | -82.65021 | 3531 ft | 203 kts | 339° |
| 2026-05-08 23:41 | 39.88190 | -82.65493 | 3170 ft | 203 kts | 339° |
| 2026-05-08 23:41 | 39.89527 | -82.65969 | 3003 ft | 192 kts | 339° |
| 2026-05-08 23:42 | 39.90814 | -82.66431 | 3012 ft | 192 kts | 339° |
| 2026-05-08 23:42 | 39.92087 | -82.66892 | 3005 ft | 190 kts | 338° |
| 2026-05-08 23:42 | 39.93356 | -82.67390 | 3002 ft | 190 kts | 337° |
| 2026-05-08 23:42 | 39.94619 | -82.67901 | 2990 ft | 189 kts | 336° |
| 2026-05-08 23:43 | 39.95802 | -82.68574 | 2986 ft | 181 kts | 316° |
| 2026-05-08 23:43 | 39.96632 | -82.69793 | 2861 ft | 183 kts | 302° |
| 2026-05-08 23:43 | 39.97391 | -82.71100 | 2604 ft | 175 kts | 302° |
| 2026-05-08 23:43 | 39.98056 | -82.72321 | 2495 ft | 155 kts | 293° |
| 2026-05-08 23:44 | 39.98288 | -82.73582 | 2526 ft | 141 kts | 274° |
| 2026-05-08 23:44 | 39.98424 | -82.74864 | 2506 ft | 143 kts | 273° |
| 2026-05-08 23:44 | 39.98522 | -82.76155 | 2509 ft | 142 kts | 273° |
| 2026-05-08 23:44 | 39.98609 | -82.77469 | 2328 ft | 147 kts | 271° |
| 2026-05-08 23:45 | 39.98686 | -82.78796 | 2120 ft | 146 kts | 272° |
| 2026-05-08 23:45 | 39.98759 | -82.80098 | 1933 ft | 143 kts | 272° |
| 2026-05-08 23:45 | 39.98832 | -82.81387 | 1713 ft | 147 kts | 272° |
| 2026-05-08 23:45 | 39.98919 | -82.82706 | 1521 ft | 144 kts | 271° |
| 2026-05-08 23:46 | 39.98986 | -82.84029 | 1369 ft | 149 kts | 270° |
| 2026-05-08 23:46 | 39.99045 | -82.85391 | 1175 ft | 150 kts | 271° |
| 2026-05-08 23:46 | 39.99132 | -82.86743 | 951 ft | 150 kts | 273° |
| 2026-05-08 23:46 | 39.99227 | -82.88057 | 828 ft | 136 kts | 268° |
| 2026-05-08 23:47 | 39.99263 | -82.89105 | 822 ft | 88 kts | 274° |
| 2026-05-08 23:47 | 39.99348 | -82.89569 | 823 ft | 30 kts | 303° |
| 2026-05-08 23:47 | 39.99393 | -82.89658 | 822 ft | 0 kts | 307° |
| 2026-05-08 23:48 | 39.99425 | -82.89685 | 822 ft | 11 kts | 351° |
| 2026-05-08 23:48 | 39.99466 | -82.89617 | 823 ft | 11 kts | 86° |
| 2026-05-08 23:48 | 39.99461 | -82.89484 | 825 ft | 17 kts | 96° |
| 2026-05-08 23:49 | 39.99452 | -82.89307 | 824 ft | 22 kts | 94° |
| 2026-05-08 23:49 | 39.99440 | -82.89095 | 821 ft | 25 kts | 94° |
| 2026-05-08 23:49 | 39.99427 | -82.88879 | 820 ft | 23 kts | 95° |
| 2026-05-08 23:49 | 39.99416 | -82.88672 | 818 ft | 23 kts | 94° |
| 2026-05-08 23:50 | 39.99403 | -82.88470 | 819 ft | 22 kts | 94° |
| 2026-05-08 23:50 | 39.99465 | -82.88325 | 819 ft | 20 kts | 7° |
| 2026-05-08 23:50 | 39.99598 | -82.88295 | 816 ft | 19 kts | 40° |
| 2026-05-08 23:50 | 39.99650 | -82.88142 | 819 ft | 15 kts | 61° |
| 2026-05-08 23:51 | 39.99675 | -82.88089 | 819 ft | 0 kts | 59° |